createdAt,value
2022-11-23T00:01:18.613Z,4.18
2022-11-23T00:05:20.443Z,3.60
2022-11-23T00:09:22.708Z,3.45
2022-11-23T00:13:24.338Z,3.53
2022-11-23T00:17:25.928Z,3.70
2022-11-23T00:21:30.931Z,3.63
2022-11-23T00:25:32.541Z,3.72
2022-11-23T00:29:34.354Z,3.72
2022-11-23T00:33:36.260Z,3.30
2022-11-23T00:37:37.888Z,3.80
2022-11-23T00:41:39.462Z,3.50
2022-11-23T00:45:41.144Z,3.35
2022-11-23T00:49:42.712Z,3.78
2022-11-23T00:53:44.988Z,3.60
2022-11-23T00:57:46.655Z,3.20
2022-11-23T01:01:49.494Z,3.10
2022-11-23T01:05:51.185Z,2.72
2022-11-23T01:09:52.760Z,3.25
2022-11-23T01:13:54.811Z,3.42
2022-11-23T01:17:56.574Z,3.53
2022-11-23T01:21:58.318Z,2.95
2022-11-23T01:26:06.076Z,3.05
2022-11-23T01:30:08.354Z,3.13
2022-11-23T01:34:12.205Z,3.20
2022-11-23T01:38:17.999Z,3.22
2022-11-23T01:42:20.066Z,2.67
2022-11-23T01:46:21.937Z,2.80
2022-11-23T01:50:23.850Z,2.72
2022-11-23T01:54:32.286Z,3.63
2022-11-23T01:58:39.448Z,3.22
2022-11-23T02:03:03.555Z,3.13
2022-11-23T02:07:05.632Z,3.22
2022-11-23T02:11:07.443Z,2.65
2022-11-23T02:15:09.473Z,2.85
2022-11-23T02:19:22.258Z,3.13
2022-11-23T02:24:12.754Z,3.10
2022-11-23T02:28:24.692Z,2.80
2022-11-23T02:32:27.208Z,2.85
2022-11-23T02:36:34.309Z,2.90
2022-11-23T02:40:36.715Z,2.50
2022-11-23T02:45:09.160Z,3.35
2022-11-23T02:49:10.950Z,3.25
2022-11-23T02:53:13.343Z,2.53
2022-11-23T02:57:15.020Z,2.60
2022-11-23T03:01:16.877Z,2.92
2022-11-23T03:05:18.542Z,2.55
2022-11-23T03:09:20.283Z,2.13
2022-11-23T03:13:21.890Z,2.97
2022-11-23T03:17:23.562Z,2.97
2022-11-23T03:21:25.407Z,2.80
2022-11-23T03:25:27.010Z,2.92
2022-11-23T03:29:28.953Z,2.53
2022-11-23T03:33:30.840Z,2.30
2022-11-23T03:37:32.494Z,2.85
2022-11-23T03:41:34.121Z,2.67
2022-11-23T03:45:35.700Z,2.50
2022-11-23T03:49:37.319Z,2.95
2022-11-23T03:53:38.924Z,2.50
2022-11-23T03:57:40.506Z,2.72
2022-11-23T04:01:42.157Z,2.65
2022-11-23T04:05:43.746Z,2.75
2022-11-23T04:09:45.333Z,2.78
2022-11-23T04:13:47.012Z,2.53
2022-11-23T04:17:48.601Z,2.47
2022-11-23T04:21:50.207Z,2.17
2022-11-23T04:25:51.874Z,2.75
2022-11-23T04:29:53.494Z,2.50
2022-11-23T04:33:56.712Z,2.17
2022-11-23T04:37:58.367Z,2.40
2022-11-23T04:41:59.937Z,2.83
2022-11-23T04:46:01.524Z,2.20
2022-11-23T04:50:03.361Z,2.22
2022-11-23T04:54:05.532Z,2.25
2022-11-23T04:58:07.127Z,2.60
2022-11-23T05:02:08.901Z,2.28
2022-11-23T05:06:10.757Z,2.50
2022-11-23T05:10:12.528Z,2.50
2022-11-23T05:14:14.232Z,2.20
2022-11-23T05:18:15.873Z,2.38
2022-11-23T05:22:17.488Z,2.22
2022-11-23T05:26:19.592Z,2.00
2022-11-23T05:30:21.618Z,2.15
2022-11-23T05:34:23.322Z,1.98
2022-11-23T05:38:24.953Z,2.03
2022-11-23T05:42:26.537Z,2.30
2022-11-23T05:46:28.159Z,2.15
2022-11-23T05:50:29.952Z,2.33
2022-11-23T05:54:31.625Z,2.35
2022-11-23T05:58:33.434Z,1.83
2022-11-23T06:02:40.765Z,1.77
2022-11-23T06:06:42.744Z,2.05
2022-11-23T06:10:44.605Z,1.85
2022-11-23T06:14:46.225Z,2.20
2022-11-23T06:18:47.880Z,2.03
2022-11-23T06:22:53.743Z,2.08
2022-11-23T06:26:55.411Z,2.60
2022-11-23T06:31:02.324Z,1.80
2022-11-23T06:35:04.075Z,2.25
2022-11-23T06:39:06.114Z,2.40
2022-11-23T06:43:09.248Z,2.65
2022-11-23T06:47:16.501Z,2.50
2022-11-23T06:51:18.886Z,2.67
2022-11-23T06:55:21.397Z,2.50
2022-11-23T06:59:22.978Z,2.75
2022-11-23T07:03:25.022Z,2.53
2022-11-23T07:07:27.235Z,2.55
2022-11-23T07:11:29.004Z,2.95
2022-11-23T07:15:30.617Z,2.60
2022-11-23T07:19:32.530Z,2.60
2022-11-23T07:23:38.562Z,2.63
2022-11-23T07:27:40.159Z,2.25
2022-11-23T07:31:41.954Z,2.92
2022-11-23T07:35:43.618Z,2.90
2022-11-23T07:40:01.301Z,3.47
2022-11-23T07:44:03.225Z,2.90
2022-11-23T07:48:07.137Z,3.03
2022-11-23T07:52:08.716Z,3.08
2022-11-23T07:56:10.351Z,2.65
2022-11-23T08:00:12.579Z,2.53
2022-11-23T08:04:14.184Z,3.35
2022-11-23T08:08:16.096Z,2.75
2022-11-23T08:12:17.733Z,3.03
2022-11-23T08:16:20.350Z,2.95
2022-11-23T08:20:22.055Z,2.33
2022-11-23T08:24:23.637Z,2.95
2022-11-23T08:28:25.226Z,3.42
2022-11-23T08:32:26.800Z,3.15
2022-11-23T08:36:28.430Z,2.70
2022-11-23T08:40:30.091Z,3.00
2022-11-23T08:44:32.019Z,2.90
2022-11-23T08:48:33.889Z,3.50
2022-11-23T08:52:35.502Z,3.30
2022-11-23T08:56:37.083Z,3.10
2022-11-23T09:00:38.794Z,3.40
2022-11-23T09:04:41.475Z,2.85
2022-11-23T09:08:43.164Z,2.80
2022-11-23T09:12:44.951Z,3.35
2022-11-23T09:16:46.536Z,2.83
2022-11-23T09:20:48.092Z,2.53
2022-11-23T09:24:49.777Z,2.70
2022-11-23T09:28:51.369Z,2.75
2022-11-23T09:32:54.802Z,2.90
2022-11-23T09:36:59.401Z,2.75
2022-11-23T09:41:07.022Z,2.35
2022-11-23T09:45:32.739Z,2.75
2022-11-23T09:49:51.830Z,3.00
2022-11-23T09:54:00.622Z,2.78
2022-11-23T09:58:05.619Z,2.60
2022-11-23T10:02:38.168Z,3.00
2022-11-23T10:06:43.082Z,3.05
2022-11-23T10:10:51.215Z,2.67
2022-11-23T10:15:18.542Z,2.28
2022-11-23T10:19:38.596Z,3.00
2022-11-23T10:23:54.711Z,2.30
2022-11-23T10:28:02.499Z,2.72
2022-11-23T10:32:13.145Z,2.63
2022-11-23T10:36:14.788Z,2.88
2022-11-23T10:40:28.908Z,2.80
2022-11-23T10:44:36.829Z,2.40
2022-11-23T10:48:38.766Z,2.08
2022-11-23T10:52:50.855Z,2.40
2022-11-23T10:56:54.158Z,2.35
2022-11-23T11:01:00.697Z,2.20
2022-11-23T11:05:53.619Z,2.22
2022-11-23T11:09:52.994Z,2.20
2022-11-23T11:14:15.784Z,2.35
2022-11-23T11:18:19.394Z,2.63
2022-11-23T11:22:33.630Z,2.22
2022-11-23T11:26:35.989Z,2.20
2022-11-23T11:30:49.194Z,2.15
2022-11-23T11:35:09.679Z,2.05
2022-11-23T11:39:20.175Z,2.13
2022-11-23T11:43:43.663Z,1.98
2022-11-23T11:48:01.017Z,2.10
2022-11-23T11:52:08.775Z,2.08
2022-11-23T11:56:24.711Z,1.85
2022-11-23T12:00:27.963Z,2.13
2022-11-23T12:04:57.779Z,1.70
2022-11-23T12:09:21.543Z,2.10
2022-11-23T12:13:27.336Z,2.47
2022-11-23T12:17:47.959Z,1.88
2022-11-23T12:21:58.629Z,2.15
2022-11-23T12:26:26.440Z,1.95
2022-11-23T12:30:41.721Z,2.17
2022-11-23T12:35:21.190Z,1.70
2022-11-23T12:39:34.256Z,1.63
2022-11-23T12:43:59.142Z,2.13
2022-11-23T12:48:35.676Z,2.03
2022-11-23T12:52:46.668Z,1.60
2022-11-23T12:57:00.356Z,1.70
2022-11-23T13:01:30.673Z,2.10
2022-11-23T13:06:13.480Z,2.08
2022-11-23T13:10:27.427Z,1.50
2022-11-23T13:15:04.678Z,1.52
2022-11-23T13:19:22.416Z,1.73
2022-11-23T13:23:24.479Z,1.60
2022-11-23T13:27:31.830Z,1.80
2022-11-23T13:31:35.853Z,1.77
2022-11-23T13:35:43.655Z,1.65
2022-11-23T13:40:00.758Z,1.77
2022-11-23T13:44:12.455Z,1.83
2022-11-23T13:48:49.040Z,1.50
2022-11-23T13:52:51.854Z,1.80
2022-11-23T13:57:02.132Z,1.40
2022-11-23T14:01:04.203Z,1.55
2022-11-23T14:05:35.950Z,2.10
2022-11-23T14:09:54.345Z,1.35
2022-11-23T14:14:03.542Z,1.52
2022-11-23T14:18:18.730Z,1.52
2022-11-23T14:22:38.381Z,1.42
2022-11-23T14:27:31.216Z,1.48
2022-11-23T14:31:26.721Z,1.45
2022-11-23T14:36:13.568Z,1.73
2022-11-23T14:40:53.676Z,1.77
2022-11-23T14:44:57.810Z,1.40
2022-11-23T14:49:05.770Z,1.83
2022-11-23T14:53:10.875Z,1.55
2022-11-23T14:57:13.985Z,1.70
2022-11-23T15:01:25.077Z,1.17
2022-11-23T15:05:31.623Z,1.20
2022-11-23T15:09:54.314Z,1.33
2022-11-23T15:14:02.120Z,1.42
2022-11-23T15:18:04.764Z,1.20
2022-11-23T15:22:16.644Z,1.13
2022-11-23T15:26:46.728Z,1.33
2022-11-23T15:30:46.423Z,1.23
2022-11-23T15:34:49.314Z,1.30
2022-11-23T15:38:53.064Z,1.30
2022-11-23T15:42:54.688Z,1.42
2022-11-23T15:47:02.293Z,1.42
2022-11-23T15:51:08.344Z,1.40
2022-11-23T15:55:14.828Z,1.48
2022-11-23T15:59:35.305Z,1.30
2022-11-23T16:03:40.136Z,1.45
2022-11-23T16:07:57.601Z,1.10
2022-11-23T16:11:59.548Z,1.45
2022-11-23T16:16:04.311Z,1.30
2022-11-23T16:20:14.711Z,1.20
2022-11-23T16:24:21.358Z,1.25
2022-11-23T16:28:29.575Z,0.93
2022-11-23T16:32:31.916Z,1.10
2022-11-23T16:36:33.768Z,1.20
2022-11-23T16:40:35.516Z,1.10
2022-11-23T16:44:41.437Z,1.10
2022-11-23T16:48:43.675Z,1.30
2022-11-23T16:52:45.264Z,1.42
2022-11-23T16:56:47.096Z,1.10
2022-11-23T17:00:50.029Z,1.00
2022-11-23T17:04:51.750Z,1.52
2022-11-23T17:09:00.584Z,1.25
2022-11-23T17:13:21.322Z,1.33
2022-11-23T17:17:23.217Z,1.30
2022-11-23T17:21:24.796Z,1.02
2022-11-23T17:25:26.953Z,1.33
2022-11-23T17:29:28.725Z,1.50
2022-11-23T17:33:30.416Z,1.30
2022-11-23T17:37:32.257Z,0.95
2022-11-23T17:41:33.957Z,0.93
2022-11-23T17:45:35.603Z,1.15
2022-11-23T17:49:37.273Z,0.82
2022-11-23T17:53:39.073Z,1.08
2022-11-23T17:57:41.785Z,1.08
2022-11-23T18:01:43.446Z,1.25
2022-11-23T18:05:45.067Z,1.88
2022-11-23T18:09:46.686Z,2.03
2022-11-23T18:13:50.377Z,2.83
2022-11-23T18:17:52.021Z,3.80
2022-11-23T18:21:53.617Z,4.78
2022-11-23T18:26:03.253Z,6.43
2022-11-23T18:30:05.746Z,6.45
2022-11-23T18:34:07.554Z,8.18
2022-11-23T18:38:09.161Z,9.25
2022-11-23T18:42:10.761Z,8.48
2022-11-23T18:46:19.157Z,9.55
2022-11-23T18:50:21.053Z,10.35
2022-11-23T18:54:22.964Z,11.60
2022-11-23T18:58:25.254Z,11.38
2022-11-23T19:02:27.802Z,11.95
2022-11-23T19:06:29.413Z,13.07
2022-11-23T19:10:35.918Z,12.88
2022-11-23T19:14:37.586Z,13.52
2022-11-23T19:18:39.253Z,12.45
2022-11-23T19:22:41.058Z,12.25
2022-11-23T19:26:42.796Z,12.55
2022-11-23T19:30:44.526Z,13.75
2022-11-23T19:34:46.295Z,12.80
2022-11-23T19:38:48.320Z,13.55
2022-11-23T19:42:49.930Z,14.10
2022-11-23T19:46:51.552Z,15.00
2022-11-23T19:51:02.198Z,14.52
2022-11-23T19:55:05.823Z,14.07
2022-11-23T19:59:07.454Z,13.57
2022-11-23T20:03:09.200Z,13.25
2022-11-23T20:07:12.433Z,14.60
2022-11-23T20:11:16.430Z,14.93
2022-11-23T20:15:18.096Z,14.23
2022-11-23T20:19:19.933Z,14.15
2022-11-23T20:23:21.784Z,15.57
2022-11-23T20:27:23.391Z,14.98
2022-11-23T20:31:27.501Z,14.35
2022-11-23T20:35:29.198Z,13.80
2022-11-23T20:39:30.770Z,13.88
2022-11-23T20:43:32.359Z,13.80
2022-11-23T20:47:34.059Z,13.95
2022-11-23T20:51:35.844Z,14.95
2022-11-23T20:55:37.983Z,12.82
2022-11-23T20:59:40.454Z,14.23
2022-11-23T21:03:43.197Z,12.85
2022-11-23T21:07:45.875Z,14.30
2022-11-23T21:12:06.501Z,13.77
2022-11-23T21:16:08.497Z,12.95
2022-11-23T21:20:10.356Z,13.25
2022-11-23T21:24:12.256Z,13.77
2022-11-23T21:28:13.962Z,13.07
2022-11-23T21:32:15.588Z,13.13
2022-11-23T21:36:17.380Z,13.73
2022-11-23T21:40:19.013Z,14.10
2022-11-23T21:44:22.615Z,12.23
2022-11-23T21:48:24.293Z,12.15
2022-11-23T21:52:25.879Z,12.75
2022-11-23T21:56:28.650Z,12.25
2022-11-23T22:00:31.667Z,12.68
2022-11-23T22:04:33.651Z,12.25
2022-11-23T22:08:40.451Z,12.35
2022-11-23T22:12:42.074Z,13.35
2022-11-23T22:16:45.866Z,12.88
2022-11-23T22:20:48.181Z,12.32
2022-11-23T22:24:49.983Z,11.98
2022-11-23T22:28:51.880Z,12.70
2022-11-23T22:32:53.455Z,11.63
2022-11-23T22:36:55.091Z,10.88
2022-11-23T22:40:56.707Z,12.27
2022-11-23T22:44:59.194Z,10.70
2022-11-23T22:49:01.791Z,11.52
2022-11-23T22:53:03.413Z,11.32
2022-11-23T22:57:05.328Z,11.90
2022-11-23T23:01:09.776Z,11.38
2022-11-23T23:05:11.589Z,10.43
2022-11-23T23:09:13.204Z,11.00
2022-11-23T23:13:15.215Z,10.93
2022-11-23T23:17:16.853Z,11.30
2022-11-23T23:21:21.102Z,10.70
2022-11-23T23:25:22.713Z,11.27
2022-11-23T23:29:24.398Z,10.27
2022-11-23T23:33:25.981Z,10.52
2022-11-23T23:37:27.601Z,10.65
2022-11-23T23:41:29.169Z,11.10
2022-11-23T23:45:30.871Z,10.15
2022-11-23T23:49:32.490Z,9.90
2022-11-23T23:53:35.136Z,8.98
2022-11-23T23:57:36.725Z,9.70
